Time;durP1;ratioP1;P1;durP2;ratioP2;P2;SDS_P1;SDS_P2;PMS_P1;PMS_P2;Temp;Humidity;BMP_temperature;BMP_pressure;BME280_temperature;BME280_humidity;BME280_pressure;Samples;Min_cycle;Max_cycle;Signal;HPM_P1;HPM_P2
2023/01/31 00:01:11;;;;;;;;;;;4.10;99.90;;;;;;5008821;28;19918;-66
2023/01/31 00:03:38;;;;;;;;;;;4.10;99.90;;;;;;5000608;28;19920;-66
2023/01/31 00:06:09;;;;;;;;;;;4.10;99.90;;;;;;5009491;28;20349;-66
2023/01/31 00:08:35;;;;;;;;;;;4.10;99.90;;;;;;5001301;28;19913;-66
2023/01/31 00:11:00;;;;;;;;;;;4.10;99.90;;;;;;4989364;28;19920;-66
2023/01/31 00:13:28;;;;;;;;;;;4.10;99.90;;;;;;4988815;28;20409;-66
2023/01/31 00:15:56;;;;;;;;;;;4.10;99.90;;;;;;4989230;28;20133;-66
2023/01/31 00:18:22;;;;;;;;;;;4.00;99.90;;;;;;4997272;28;19953;-66
2023/01/31 00:20:47;;;;;;;;;;;4.10;99.90;;;;;;5008703;28;19952;-66
2023/01/31 00:23:13;;;;;;;;;;;4.00;99.90;;;;;;5008862;28;19993;-71
2023/01/31 00:25:38;;;;;;;;;;;4.10;99.90;;;;;;5008370;28;19982;-68
2023/01/31 00:28:04;;;;;;;;;;;4.00;99.90;;;;;;5008562;28;19914;-68
2023/01/31 00:30:29;;;;;;;;;;;4.00;99.90;;;;;;5022411;28;19945;-68
2023/01/31 00:32:55;;;;;;;;;;;4.00;99.90;;;;;;5008205;28;19921;-68
2023/01/31 00:35:20;;;;;;;;;;;4.00;99.90;;;;;;5006494;28;19917;-66
2023/01/31 00:37:46;;;;;;;;;;;4.00;99.90;;;;;;5003356;28;20024;-66
2023/01/31 00:40:11;;;;;;;;;;;4.00;99.90;;;;;;5007235;28;19947;-66
2023/01/31 00:42:37;;;;;;;;;;;4.00;99.90;;;;;;5003516;28;19940;-66
2023/01/31 00:45:02;;;;;;;;;;;4.00;99.90;;;;;;5008258;28;19984;-66
2023/01/31 00:47:28;;;;;;;;;;;4.00;99.90;;;;;;5001877;28;19910;-66
2023/01/31 00:49:53;;;;;;;;;;;4.00;99.90;;;;;;5008021;28;19949;-66
2023/01/31 00:52:19;;;;;;;;;;;4.00;99.90;;;;;;5003640;28;19914;-66
2023/01/31 00:54:44;;;;;;;;;;;4.00;99.90;;;;;;4985882;28;20486;-66
2023/01/31 00:57:10;;;;;;;;;;;4.00;99.90;;;;;;4991988;28;19914;-65
2023/01/31 00:59:35;;;;;;;;;;;4.00;99.90;;;;;;5017865;28;19913;-66
2023/01/31 01:02:01;;;;;;;;;;;4.00;99.90;;;;;;4988385;28;19944;-66
2023/01/31 01:04:26;;;;;;;;;;;4.00;99.90;;;;;;5005336;28;19914;-66
2023/01/31 01:06:51;;;;;;;;;;;4.00;99.90;;;;;;5007480;28;20011;-66
2023/01/31 01:09:17;;;;;;;;;;;4.00;99.90;;;;;;5008187;28;20382;-66
2023/01/31 01:11:43;;;;;;;;;;;4.00;99.90;;;;;;5008038;28;19909;-66
2023/01/31 01:14:08;;;;;;;;;;;4.00;99.90;;;;;;5008112;28;19910;-66
2023/01/31 01:16:36;;;;;;;;;;;4.00;99.90;;;;;;5006230;28;19917;-66
2023/01/31 01:19:03;;;;;;;;;;;4.00;99.90;;;;;;5007864;28;20376;-66
2023/01/31 01:21:29;;;;;;;;;;;4.00;99.90;;;;;;5007211;28;19921;-66
2023/01/31 01:23:56;;;;;;;;;;;4.00;99.90;;;;;;5007797;28;19956;-66
2023/01/31 01:26:24;;;;;;;;;;;4.00;99.90;;;;;;5007609;28;19957;-66
2023/01/31 01:28:50;;;;;;;;;;;3.90;99.90;;;;;;5007936;28;19916;-66
2023/01/31 01:31:16;;;;;;;;;;;4.00;99.90;;;;;;5002844;28;19914;-66
2023/01/31 01:33:42;;;;;;;;;;;4.00;99.90;;;;;;4977845;28;19913;-66
2023/01/31 01:36:12;;;;;;;;;;;4.00;99.90;;;;;;4987244;28;20439;-66
2023/01/31 01:38:39;;;;;;;;;;;4.00;99.90;;;;;;4987714;28;19914;-66
2023/01/31 01:41:05;;;;;;;;;;;4.00;99.90;;;;;;4970005;28;19918;-67
2023/01/31 01:43:41;;;;;;;;;;;4.00;99.90;;;;;;4987828;28;19945;-66
2023/01/31 01:46:07;;;;;;;;;;;4.00;99.90;;;;;;4987796;28;19909;-66
2023/01/31 01:48:33;;;;;;;;;;;3.90;99.90;;;;;;4988018;28;19917;-67
2023/01/31 01:51:02;;;;;;;;;;;4.00;99.90;;;;;;4988154;28;19914;-66
2023/01/31 01:53:27;;;;;;;;;;;3.90;99.90;;;;;;5007254;28;19913;-66
2023/01/31 01:55:55;;;;;;;;;;;3.90;99.90;;;;;;5002785;28;20285;-66
2023/01/31 01:58:22;;;;;;;;;;;3.90;99.90;;;;;;5003362;28;19921;-66
2023/01/31 02:00:48;;;;;;;;;;;4.00;99.90;;;;;;5006201;28;19939;-66
2023/01/31 02:03:14;;;;;;;;;;;3.90;99.90;;;;;;5006499;28;19913;-66
2023/01/31 02:05:40;;;;;;;;;;;3.90;99.90;;;;;;4995552;28;19924;-66
2023/01/31 02:08:05;;;;;;;;;;;3.90;99.90;;;;;;4990120;28;19953;-66
2023/01/31 02:10:53;;;;;;;;;;;3.90;99.90;;;;;;4987137;28;19914;-66
2023/01/31 02:13:19;;;;;;;;;;;3.90;99.90;;;;;;4987224;28;19913;-66
2023/01/31 02:15:45;;;;;;;;;;;3.90;99.90;;;;;;4987271;28;20577;-66
2023/01/31 02:18:11;;;;;;;;;;;3.90;99.90;;;;;;4987125;28;20000;-66
2023/01/31 02:20:55;;;;;;;;;;;3.90;99.90;;;;;;4986645;28;19924;-66
2023/01/31 02:23:24;;;;;;;;;;;3.90;99.90;;;;;;4986578;28;19914;-66
2023/01/31 02:25:59;;;;;;;;;;;3.90;99.90;;;;;;5001125;28;20544;-65
2023/01/31 02:28:27;;;;;;;;;;;3.90;99.90;;;;;;5004809;28;20047;-66
2023/01/31 02:31:12;;;;;;;;;;;3.90;99.90;;;;;;5005902;28;19910;-66
2023/01/31 02:33:37;;;;;;;;;;;3.90;99.90;;;;;;5012551;28;19979;-66
2023/01/31 02:36:21;;;;;;;;;;;3.90;99.90;;;;;;5006881;28;19945;-66
2023/01/31 02:39:12;;;;;;;;;;;3.90;99.90;;;;;;5007118;28;19953;-66
2023/01/31 02:42:07;;;;;;;;;;;3.90;99.90;;;;;;5006825;28;19917;-66
2023/01/31 02:47:24;;;;;;;;;;;3.90;99.90;;;;;;5006456;28;20007;-66
2023/01/31 02:49:59;;;;;;;;;;;3.90;99.90;;;;;;5006567;28;19913;-66
2023/01/31 02:52:33;;;;;;;;;;;3.90;99.90;;;;;;5006447;28;19921;-66
2023/01/31 02:57:48;;;;;;;;;;;3.90;99.90;;;;;;4999566;28;20013;-66
2023/01/31 03:00:13;;;;;;;;;;;3.90;99.90;;;;;;5006437;28;19920;-66
2023/01/31 03:02:39;;;;;;;;;;;3.90;99.90;;;;;;5006348;28;19913;-66
2023/01/31 03:05:05;;;;;;;;;;;3.90;99.90;;;;;;5006968;28;19920;-66
2023/01/31 03:07:33;;;;;;;;;;;3.90;99.90;;;;;;5006850;28;19913;-66
2023/01/31 03:10:28;;;;;;;;;;;3.90;99.90;;;;;;5006363;28;20004;-66
2023/01/31 03:13:05;;;;;;;;;;;3.90;99.90;;;;;;4991848;28;19917;-66
2023/01/31 03:18:28;;;;;;;;;;;3.90;99.90;;;;;;4977835;28;19910;-66
2023/01/31 03:21:03;;;;;;;;;;;3.90;99.90;;;;;;5005891;28;19919;-66
2023/01/31 03:23:30;;;;;;;;;;;3.90;99.90;;;;;;5008781;28;19913;-66
2023/01/31 03:26:00;;;;;;;;;;;3.90;99.90;;;;;;5009185;28;19914;-66
2023/01/31 03:28:29;;;;;;;;;;;3.80;99.90;;;;;;5009472;28;20378;-66
2023/01/31 03:31:00;;;;;;;;;;;3.90;99.90;;;;;;5007751;28;19913;-66
2023/01/31 03:33:28;;;;;;;;;;;3.90;99.90;;;;;;4999083;28;19918;-66
2023/01/31 03:35:58;;;;;;;;;;;3.90;99.90;;;;;;5009667;28;20006;-66
2023/01/31 03:38:29;;;;;;;;;;;3.90;99.90;;;;;;5009849;28;19918;-66
2023/01/31 03:40:55;;;;;;;;;;;3.90;99.90;;;;;;5009564;28;20412;-66
2023/01/31 03:43:20;;;;;;;;;;;3.90;99.90;;;;;;5009352;28;19913;-66
2023/01/31 03:46:06;;;;;;;;;;;3.90;99.90;;;;;;5009797;28;20538;-66
2023/01/31 03:48:35;;;;;;;;;;;3.90;99.90;;;;;;5008663;28;19917;-66
2023/01/31 03:51:03;;;;;;;;;;;3.80;99.90;;;;;;5008987;28;19913;-66
2023/01/31 03:53:40;;;;;;;;;;;3.80;99.90;;;;;;5009348;28;19940;-66
2023/01/31 03:56:16;;;;;;;;;;;3.90;99.90;;;;;;5008484;28;20447;-66
2023/01/31 03:58:43;;;;;;;;;;;3.90;99.90;;;;;;5007017;28;20320;-66
2023/01/31 04:01:09;;;;;;;;;;;3.90;99.90;;;;;;4999672;28;20448;-66
2023/01/31 04:03:46;;;;;;;;;;;3.80;99.90;;;;;;5004462;28;19975;-66
2023/01/31 04:06:12;;;;;;;;;;;3.80;99.90;;;;;;4992914;28;20282;-65
2023/01/31 04:08:38;;;;;;;;;;;3.80;99.90;;;;;;5000464;28;19917;-66
2023/01/31 04:11:04;;;;;;;;;;;3.80;99.90;;;;;;5008885;28;19910;-65
2023/01/31 04:13:30;;;;;;;;;;;3.80;99.90;;;;;;5008846;28;19913;-65
2023/01/31 04:15:55;;;;;;;;;;;3.90;99.90;;;;;;5006983;28;19995;-66
2023/01/31 04:18:21;;;;;;;;;;;3.80;99.90;;;;;;5008906;28;19921;-66
2023/01/31 04:20:46;;;;;;;;;;;3.80;99.90;;;;;;5008753;28;20413;-66
2023/01/31 04:23:12;;;;;;;;;;;3.80;99.90;;;;;;5007458;28;19920;-66
2023/01/31 04:25:37;;;;;;;;;;;3.80;99.90;;;;;;5008927;28;19980;-66
2023/01/31 04:28:03;;;;;;;;;;;3.80;99.90;;;;;;5008038;28;19917;-66
2023/01/31 04:30:29;;;;;;;;;;;3.80;99.90;;;;;;5008233;28;19941;-66
2023/01/31 04:32:54;;;;;;;;;;;3.80;99.90;;;;;;4995529;28;19914;-66
2023/01/31 04:35:19;;;;;;;;;;;3.80;99.90;;;;;;5007725;28;19996;-66
2023/01/31 04:37:45;;;;;;;;;;;3.80;99.90;;;;;;5008538;28;20622;-66
2023/01/31 04:40:13;;;;;;;;;;;3.80;99.90;;;;;;5008105;28;19920;-66
2023/01/31 04:42:38;;;;;;;;;;;3.80;99.90;;;;;;5008052;28;19924;-66
2023/01/31 04:45:04;;;;;;;;;;;3.80;99.90;;;;;;5008422;28;19910;-66
2023/01/31 04:47:30;;;;;;;;;;;3.80;99.90;;;;;;5008052;28;19918;-66
2023/01/31 04:49:55;;;;;;;;;;;3.80;99.90;;;;;;5007779;28;19968;-66
2023/01/31 04:52:23;;;;;;;;;;;3.80;99.90;;;;;;5007909;28;19928;-66
2023/01/31 04:54:48;;;;;;;;;;;3.80;99.90;;;;;;5008324;28;19920;-66
2023/01/31 04:57:14;;;;;;;;;;;3.80;99.90;;;;;;5007242;28;19913;-65
2023/01/31 04:59:40;;;;;;;;;;;3.80;99.90;;;;;;5007558;28;19913;-66
2023/01/31 05:02:05;;;;;;;;;;;3.80;99.90;;;;;;5006794;28;19924;-66
2023/01/31 05:04:31;;;;;;;;;;;3.80;99.90;;;;;;5007365;28;19920;-66
2023/01/31 05:06:56;;;;;;;;;;;3.80;99.90;;;;;;5007808;28;20517;-66
2023/01/31 05:09:23;;;;;;;;;;;3.80;99.90;;;;;;5007416;28;19918;-66
2023/01/31 05:11:49;;;;;;;;;;;3.80;99.90;;;;;;5007598;28;19909;-66
2023/01/31 05:14:15;;;;;;;;;;;3.80;99.90;;;;;;5007965;28;20463;-66
2023/01/31 05:16:42;;;;;;;;;;;3.80;99.90;;;;;;4989833;28;20000;-66
2023/01/31 05:19:08;;;;;;;;;;;3.80;99.90;;;;;;5007729;28;19971;-66
2023/01/31 05:21:53;;;;;;;;;;;3.80;99.90;;;;;;5007219;28;20537;-66
2023/01/31 05:24:22;;;;;;;;;;;3.80;99.90;;;;;;5006273;28;19913;-66
2023/01/31 05:26:49;;;;;;;;;;;3.80;99.90;;;;;;5006151;28;19913;-66
2023/01/31 05:29:15;;;;;;;;;;;3.80;99.90;;;;;;5007320;28;19917;-66
2023/01/31 05:31:40;;;;;;;;;;;3.80;99.90;;;;;;4999902;28;20614;-66
2023/01/31 05:34:06;;;;;;;;;;;3.80;99.90;;;;;;5002150;28;20004;-66
2023/01/31 05:36:31;;;;;;;;;;;3.80;99.90;;;;;;5007441;28;19917;-66
2023/01/31 05:38:57;;;;;;;;;;;3.80;99.90;;;;;;5006926;28;19921;-66
2023/01/31 05:41:22;;;;;;;;;;;3.80;99.90;;;;;;5006936;28;19913;-66
2023/01/31 05:43:48;;;;;;;;;;;3.80;99.90;;;;;;5006832;28;19920;-66
2023/01/31 05:46:13;;;;;;;;;;;3.80;99.90;;;;;;5006785;28;20270;-66
2023/01/31 05:48:39;;;;;;;;;;;3.80;99.90;;;;;;4998535;28;19921;-66
2023/01/31 05:51:04;;;;;;;;;;;3.80;99.90;;;;;;5003737;28;19913;-66
2023/01/31 05:53:30;;;;;;;;;;;3.80;99.90;;;;;;5007052;28;19921;-66
2023/01/31 05:55:55;;;;;;;;;;;3.80;99.90;;;;;;5006896;28;19913;-66
2023/01/31 05:58:20;;;;;;;;;;;3.80;99.90;;;;;;5006343;28;20318;-66
2023/01/31 06:00:46;;;;;;;;;;;3.80;99.90;;;;;;5003418;28;19917;-66
2023/01/31 06:03:11;;;;;;;;;;;3.80;99.90;;;;;;5005604;28;19940;-66
2023/01/31 06:05:39;;;;;;;;;;;3.80;99.90;;;;;;5007104;28;19940;-66
2023/01/31 06:08:05;;;;;;;;;;;3.80;99.90;;;;;;5007093;28;20272;-66
2023/01/31 06:10:30;;;;;;;;;;;3.80;99.90;;;;;;5006734;28;19936;-66
2023/01/31 06:12:55;;;;;;;;;;;3.80;99.90;;;;;;5006916;28;19921;-66
2023/01/31 06:15:21;;;;;;;;;;;3.80;99.90;;;;;;5006662;28;19921;-66
2023/01/31 06:17:46;;;;;;;;;;;3.80;99.90;;;;;;5006825;28;19943;-66
2023/01/31 06:20:12;;;;;;;;;;;3.80;99.90;;;;;;5006613;28;19913;-66
2023/01/31 06:22:37;;;;;;;;;;;3.80;99.90;;;;;;5006269;28;19925;-66
2023/01/31 06:25:03;;;;;;;;;;;3.80;99.90;;;;;;5006156;28;20545;-66
2023/01/31 06:27:32;;;;;;;;;;;3.80;99.90;;;;;;5005838;28;19982;-66
2023/01/31 06:29:58;;;;;;;;;;;3.80;99.90;;;;;;5006212;28;19909;-66
2023/01/31 06:32:23;;;;;;;;;;;3.80;99.90;;;;;;4993137;28;20577;-65
2023/01/31 06:34:49;;;;;;;;;;;3.80;99.90;;;;;;5006660;28;20669;-66
2023/01/31 06:37:14;;;;;;;;;;;3.90;99.90;;;;;;5006119;28;19913;-66
2023/01/31 06:39:40;;;;;;;;;;;3.80;99.90;;;;;;5006071;28;19967;-66
2023/01/31 06:42:06;;;;;;;;;;;3.80;99.90;;;;;;5006319;28;20298;-66
2023/01/31 06:44:32;;;;;;;;;;;3.90;99.90;;;;;;5006492;28;20529;-66
2023/01/31 06:46:58;;;;;;;;;;;3.80;99.90;;;;;;5006291;28;19914;-66
2023/01/31 06:49:23;;;;;;;;;;;3.90;99.90;;;;;;5005968;28;19936;-66
2023/01/31 06:51:49;;;;;;;;;;;3.90;99.90;;;;;;5006602;28;19913;-66
2023/01/31 06:54:14;;;;;;;;;;;3.80;99.90;;;;;;5006571;28;20550;-66
2023/01/31 06:56:40;;;;;;;;;;;3.90;99.90;;;;;;5006321;28;20043;-66
2023/01/31 06:59:05;;;;;;;;;;;3.90;99.90;;;;;;5009826;28;20570;-66
2023/01/31 07:01:31;;;;;;;;;;;3.90;99.90;;;;;;5009785;28;20004;-66
2023/01/31 07:03:56;;;;;;;;;;;3.90;99.90;;;;;;5010163;28;20290;-66
2023/01/31 07:06:22;;;;;;;;;;;3.90;99.90;;;;;;5008778;28;19928;-66
2023/01/31 07:08:47;;;;;;;;;;;3.80;99.90;;;;;;5009480;28;20448;-66
2023/01/31 07:11:13;;;;;;;;;;;3.90;99.90;;;;;;5009728;28;19913;-66
2023/01/31 07:13:38;;;;;;;;;;;3.90;99.90;;;;;;5009466;28;20525;-66
2023/01/31 07:16:04;;;;;;;;;;;3.90;99.90;;;;;;4993855;28;19925;-66
2023/01/31 07:18:29;;;;;;;;;;;3.90;99.90;;;;;;4990146;28;19944;-66
2023/01/31 07:20:55;;;;;;;;;;;3.90;99.90;;;;;;4994383;28;19922;-66
2023/01/31 07:23:20;;;;;;;;;;;3.90;99.90;;;;;;5001493;28;19917;-66
2023/01/31 07:25:46;;;;;;;;;;;3.90;99.90;;;;;;5005387;28;19919;-65
2023/01/31 07:28:11;;;;;;;;;;;3.90;99.90;;;;;;4997392;28;20695;-66
2023/01/31 07:30:37;;;;;;;;;;;3.90;99.90;;;;;;4999947;28;19920;-66
2023/01/31 07:33:02;;;;;;;;;;;3.90;99.90;;;;;;5002682;28;19914;-66
2023/01/31 07:35:28;;;;;;;;;;;3.90;99.90;;;;;;5001625;28;19920;-66
2023/01/31 07:37:53;;;;;;;;;;;3.90;99.90;;;;;;5009174;28;19913;-66
2023/01/31 07:40:19;;;;;;;;;;;3.90;99.90;;;;;;4983591;28;20012;-66
2023/01/31 07:42:44;;;;;;;;;;;3.90;99.90;;;;;;4992538;28;19917;-66
2023/01/31 07:45:10;;;;;;;;;;;3.90;99.90;;;;;;4995702;28;19918;-66
2023/01/31 07:47:36;;;;;;;;;;;3.90;99.90;;;;;;4999958;28;19914;-66
2023/01/31 07:50:02;;;;;;;;;;;3.90;99.90;;;;;;4998034;28;19928;-66
2023/01/31 07:52:27;;;;;;;;;;;3.90;99.90;;;;;;5004836;28;19959;-66
2023/01/31 07:54:53;;;;;;;;;;;3.90;99.90;;;;;;5008957;28;19913;-66
2023/01/31 07:57:18;;;;;;;;;;;4.00;99.90;;;;;;5001298;28;19996;-66
2023/01/31 07:59:44;;;;;;;;;;;3.90;99.90;;;;;;5008522;28;20000;-66
2023/01/31 08:04:57;;;;;;;;;;;4.00;99.90;;;;;;5009151;28;19967;-66
2023/01/31 08:07:23;;;;;;;;;;;4.00;99.90;;;;;;5005078;28;19914;-66
2023/01/31 08:09:49;;;;;;;;;;;4.00;99.90;;;;;;5008663;28;19917;-65
2023/01/31 08:12:15;;;;;;;;;;;4.00;99.90;;;;;;5008774;28;19920;-66
2023/01/31 08:14:40;;;;;;;;;;;4.10;99.90;;;;;;5008828;28;19996;-66
2023/01/31 08:17:07;;;;;;;;;;;4.10;99.90;;;;;;5007300;28;20024;-66
2023/01/31 08:19:33;;;;;;;;;;;4.10;99.90;;;;;;5008738;28;19948;-66
2023/01/31 08:21:59;;;;;;;;;;;4.10;99.90;;;;;;5008414;28;19952;-66
2023/01/31 08:24:24;;;;;;;;;;;4.10;99.90;;;;;;5008588;28;19999;-66
2023/01/31 08:26:50;;;;;;;;;;;4.10;99.90;;;;;;5008637;28;19913;-66
2023/01/31 08:29:15;;;;;;;;;;;4.10;99.90;;;;;;5007346;28;19921;-66
2023/01/31 08:31:41;;;;;;;;;;;4.10;99.90;;;;;;5006341;28;19914;-66
2023/01/31 08:34:07;;;;;;;;;;;4.10;99.90;;;;;;5007387;28;19987;-66
2023/01/31 08:36:32;;;;;;;;;;;4.10;99.90;;;;;;5007077;28;19921;-66
2023/01/31 08:38:58;;;;;;;;;;;4.10;99.90;;;;;;5008490;28;20052;-66
2023/01/31 08:41:24;;;;;;;;;;;4.10;99.90;;;;;;5008271;28;19968;-65
2023/01/31 08:43:50;;;;;;;;;;;4.20;99.90;;;;;;5008249;28;19913;-66
2023/01/31 08:46:16;;;;;;;;;;;4.20;99.90;;;;;;5008506;28;19917;-66
2023/01/31 08:48:42;;;;;;;;;;;4.10;99.90;;;;;;5008141;28;20613;-65
2023/01/31 08:51:10;;;;;;;;;;;4.10;99.90;;;;;;5007992;28;20000;-66
2023/01/31 08:53:36;;;;;;;;;;;4.10;99.90;;;;;;4990405;28;19913;-65
2023/01/31 08:56:04;;;;;;;;;;;4.10;99.90;;;;;;5008058;28;19910;-65
2023/01/31 08:58:33;;;;;;;;;;;4.20;99.90;;;;;;5007726;28;20016;-65
2023/01/31 09:01:06;;;;;;;;;;;4.20;99.90;;;;;;5007530;28;19944;-66
2023/01/31 09:03:32;;;;;;;;;;;4.20;99.90;;;;;;5007793;28;19913;-65
2023/01/31 09:06:01;;;;;;;;;;;4.20;99.90;;;;;;5008014;28;19924;-65
2023/01/31 09:08:26;;;;;;;;;;;4.20;99.90;;;;;;4990224;28;19921;-65
2023/01/31 09:10:53;;;;;;;;;;;4.20;99.90;;;;;;5007846;28;19917;-66
2023/01/31 09:13:18;;;;;;;;;;;4.20;99.90;;;;;;5007420;28;19980;-65
2023/01/31 09:15:44;;;;;;;;;;;4.20;99.90;;;;;;5007565;28;19921;-65
2023/01/31 09:18:09;;;;;;;;;;;4.20;99.90;;;;;;5007609;28;19960;-65
2023/01/31 09:20:35;;;;;;;;;;;4.30;99.90;;;;;;5006839;28;19920;-65
2023/01/31 09:23:00;;;;;;;;;;;4.30;99.90;;;;;;5007697;28;19913;-66
2023/01/31 09:25:26;;;;;;;;;;;4.30;99.90;;;;;;5007649;28;20486;-66
2023/01/31 09:27:52;;;;;;;;;;;4.30;99.90;;;;;;5007534;28;19924;-67
2023/01/31 09:30:18;;;;;;;;;;;4.30;99.90;;;;;;5007056;28;19913;-66
2023/01/31 09:32:44;;;;;;;;;;;4.30;99.90;;;;;;5006917;28;19928;-66
2023/01/31 09:35:10;;;;;;;;;;;4.30;99.90;;;;;;5007332;28;19913;-67
2023/01/31 09:37:37;;;;;;;;;;;4.30;99.90;;;;;;5007641;28;19959;-66
2023/01/31 09:40:03;;;;;;;;;;;4.40;99.90;;;;;;5007162;28;19925;-66
2023/01/31 09:42:41;;;;;;;;;;;4.40;99.90;;;;;;5007097;28;19996;-66
2023/01/31 09:45:11;;;;;;;;;;;4.40;99.90;;;;;;5007379;28;19913;-66
2023/01/31 09:47:38;;;;;;;;;;;4.40;99.90;;;;;;5007124;28;19921;-67
2023/01/31 09:50:04;;;;;;;;;;;4.50;99.90;;;;;;5006289;28;20251;-66
2023/01/31 09:52:31;;;;;;;;;;;4.50;99.90;;;;;;5007363;28;19913;-67
2023/01/31 09:54:57;;;;;;;;;;;4.50;99.90;;;;;;5007143;28;20278;-66
2023/01/31 09:57:28;;;;;;;;;;;4.50;99.90;;;;;;5006391;28;19993;-67
2023/01/31 09:59:56;;;;;;;;;;;4.50;99.90;;;;;;5006174;28;19995;-66
2023/01/31 10:02:27;;;;;;;;;;;4.50;99.90;;;;;;5005355;28;20322;-66
2023/01/31 10:05:12;;;;;;;;;;;4.60;99.90;;;;;;5006136;28;19910;-67
2023/01/31 10:07:43;;;;;;;;;;;4.60;99.90;;;;;;5006264;28;19913;-66
2023/01/31 10:10:29;;;;;;;;;;;4.60;99.90;;;;;;5004703;28;19920;-66
2023/01/31 10:12:56;;;;;;;;;;;4.70;99.90;;;;;;5006239;28;19945;-66
2023/01/31 10:15:22;;;;;;;;;;;4.70;99.90;;;;;;5000229;28;19918;-66
2023/01/31 10:17:49;;;;;;;;;;;4.70;99.90;;;;;;5003025;28;19920;-67
2023/01/31 10:20:15;;;;;;;;;;;4.70;99.90;;;;;;5004673;28;20401;-66
2023/01/31 10:22:53;;;;;;;;;;;4.70;99.90;;;;;;5005824;28;19918;-66
2023/01/31 10:25:24;;;;;;;;;;;4.70;99.90;;;;;;5005804;28;19956;-66
2023/01/31 10:27:54;;;;;;;;;;;4.70;99.90;;;;;;5005936;28;19960;-66
2023/01/31 10:30:22;;;;;;;;;;;4.70;99.90;;;;;;4988715;28;20337;-66
2023/01/31 10:32:54;;;;;;;;;;;4.70;99.90;;;;;;4997271;28;19997;-67
2023/01/31 10:35:23;;;;;;;;;;;4.80;99.90;;;;;;5009858;28;20350;-66
2023/01/31 10:37:52;;;;;;;;;;;4.80;99.90;;;;;;5009924;28;19952;-67
2023/01/31 10:40:32;;;;;;;;;;;4.80;99.90;;;;;;5009120;28;20000;-66
2023/01/31 10:43:01;;;;;;;;;;;4.80;99.90;;;;;;4990487;28;20375;-66
2023/01/31 10:45:29;;;;;;;;;;;4.80;99.90;;;;;;4990226;28;19914;-66
2023/01/31 10:48:05;;;;;;;;;;;4.80;99.90;;;;;;4990058;28;19921;-66
2023/01/31 10:50:33;;;;;;;;;;;4.90;99.90;;;;;;4989762;28;20327;-66
2023/01/31 10:52:58;;;;;;;;;;;4.90;99.90;;;;;;5007335;28;19921;-67
2023/01/31 10:55:29;;;;;;;;;;;4.80;99.90;;;;;;5009691;28;19913;-66
2023/01/31 10:57:55;;;;;;;;;;;4.80;99.90;;;;;;5003306;28;20430;-67
2023/01/31 11:00:25;;;;;;;;;;;4.80;99.90;;;;;;5008947;28;20765;-67
2023/01/31 11:02:50;;;;;;;;;;;4.80;99.90;;;;;;5009182;28;19913;-66
2023/01/31 11:05:20;;;;;;;;;;;4.90;99.90;;;;;;5009232;28;20378;-66
2023/01/31 11:07:46;;;;;;;;;;;4.80;99.90;;;;;;5008787;28;19921;-67
2023/01/31 11:10:20;;;;;;;;;;;4.80;99.90;;;;;;5008350;28;19914;-67
2023/01/31 11:13:13;;;;;;;;;;;4.80;99.90;;;;;;5009121;28;19924;-66
2023/01/31 11:15:41;;;;;;;;;;;4.80;99.90;;;;;;5006393;28;20362;-66
2023/01/31 11:18:12;;;;;;;;;;;4.80;99.90;;;;;;5008546;28;19940;-67
2023/01/31 11:20:44;;;;;;;;;;;4.80;99.90;;;;;;5008118;28;19910;-67
2023/01/31 11:23:12;;;;;;;;;;;4.90;99.90;;;;;;5005482;28;19913;-67
2023/01/31 11:25:38;;;;;;;;;;;4.90;99.90;;;;;;5004247;28;19917;-66
2023/01/31 11:28:15;;;;;;;;;;;4.90;99.90;;;;;;5008169;28;19914;-67
2023/01/31 11:30:41;;;;;;;;;;;4.90;99.90;;;;;;4991053;28;19913;-67
2023/01/31 11:33:06;;;;;;;;;;;4.90;99.90;;;;;;4996102;28;19914;-67
2023/01/31 11:35:33;;;;;;;;;;;4.90;99.90;;;;;;5008660;28;19928;-67
2023/01/31 11:38:11;;;;;;;;;;;4.90;99.90;;;;;;5008924;28;20522;-67
2023/01/31 11:40:37;;;;;;;;;;;4.90;99.90;;;;;;5008365;28;20539;-67
2023/01/31 11:43:23;;;;;;;;;;;4.90;99.90;;;;;;5007953;28;19920;-66
2023/01/31 11:45:54;;;;;;;;;;;5.00;99.90;;;;;;5008410;28;20356;-67
2023/01/31 11:48:24;;;;;;;;;;;4.90;99.90;;;;;;5007833;28;19944;-66
2023/01/31 11:50:52;;;;;;;;;;;5.00;99.90;;;;;;5008487;28;19925;-67
2023/01/31 11:53:26;;;;;;;;;;;5.00;99.90;;;;;;4989108;28;19914;-67
2023/01/31 11:55:54;;;;;;;;;;;5.00;99.90;;;;;;4998194;28;19964;-67
2023/01/31 11:58:22;;;;;;;;;;;5.00;99.90;;;;;;5000479;28;19920;-66
2023/01/31 12:00:50;;;;;;;;;;;5.00;99.90;;;;;;4998911;28;21139;-67
2023/01/31 12:03:16;;;;;;;;;;;5.00;99.90;;;;;;4999535;28;20008;-67
2023/01/31 12:05:43;;;;;;;;;;;5.00;99.90;;;;;;5000054;28;19952;-66
2023/01/31 12:08:27;;;;;;;;;;;5.10;99.90;;;;;;4998900;28;19941;-67
2023/01/31 12:10:53;;;;;;;;;;;5.00;99.90;;;;;;4998880;28;19920;-67
2023/01/31 12:13:19;;;;;;;;;;;5.10;99.90;;;;;;4997935;28;19913;-67
2023/01/31 12:15:54;;;;;;;;;;;5.00;99.90;;;;;;4999593;28;19925;-67
2023/01/31 12:18:26;;;;;;;;;;;5.10;99.90;;;;;;4998826;28;19913;-67
2023/01/31 12:20:58;;;;;;;;;;;5.10;99.90;;;;;;4988171;28;20017;-66
2023/01/31 12:23:39;;;;;;;;;;;5.10;99.90;;;;;;5008160;28;20385;-67
2023/01/31 12:26:09;;;;;;;;;;;5.10;99.90;;;;;;5007841;28;19913;-66
2023/01/31 12:28:35;;;;;;;;;;;5.10;99.90;;;;;;5007799;28;20112;-67
2023/01/31 12:31:00;;;;;;;;;;;5.10;99.90;;;;;;5006615;28;20400;-66
2023/01/31 12:33:44;;;;;;;;;;;5.10;99.90;;;;;;5007527;28;19988;-67
2023/01/31 12:36:16;;;;;;;;;;;5.00;99.90;;;;;;5006367;28;19922;-67
2023/01/31 12:38:50;;;;;;;;;;;5.10;99.90;;;;;;5007646;28;19921;-67
2023/01/31 12:41:21;;;;;;;;;;;5.10;99.90;;;;;;5007287;28;19938;-66
2023/01/31 12:43:50;;;;;;;;;;;5.10;99.90;;;;;;5007456;28;19913;-66
2023/01/31 12:46:24;;;;;;;;;;;5.10;99.90;;;;;;5007594;28;19917;-67
2023/01/31 12:49:09;;;;;;;;;;;5.10;99.90;;;;;;5007606;28;19920;-67
2023/01/31 12:51:40;;;;;;;;;;;5.10;99.90;;;;;;5007080;28;19914;-67
2023/01/31 12:54:16;;;;;;;;;;;5.10;99.90;;;;;;5007002;28;19918;-66
2023/01/31 12:56:42;;;;;;;;;;;5.10;99.90;;;;;;4982696;28;19941;-67
2023/01/31 12:59:19;;;;;;;;;;;5.10;99.90;;;;;;5004613;28;19999;-67
2023/01/31 13:01:56;;;;;;;;;;;5.10;99.90;;;;;;5007195;28;19918;-67
2023/01/31 13:04:29;;;;;;;;;;;5.10;99.90;;;;;;5002370;28;20000;-67
2023/01/31 13:07:21;;;;;;;;;;;5.10;99.90;;;;;;4996377;28;19985;-67
2023/01/31 13:09:47;;;;;;;;;;;5.10;99.90;;;;;;4997687;28;20474;-66
2023/01/31 13:12:18;;;;;;;;;;;5.10;99.90;;;;;;4996081;28;19941;-67
2023/01/31 13:14:48;;;;;;;;;;;5.10;99.90;;;;;;4996662;28;19914;-67
2023/01/31 13:17:26;;;;;;;;;;;5.10;99.90;;;;;;5083048;27;19916;-66
2023/01/31 13:19:55;;;;;;;;;;;5.10;99.90;;;;;;5083069;28;20519;-66
2023/01/31 13:22:22;;;;;;;;;;;5.20;99.90;;;;;;5083215;28;19965;-66
2023/01/31 13:24:57;;;;;;;;;;;5.10;99.90;;;;;;5082962;28;19916;-66
2023/01/31 13:27:32;;;;;;;;;;;5.20;99.90;;;;;;5082992;28;19928;-66
2023/01/31 13:30:04;;;;;;;;;;;5.10;99.90;;;;;;5079881;28;19912;-66
2023/01/31 13:32:42;;;;;;;;;;;5.20;99.90;;;;;;5083449;28;19912;-66
2023/01/31 13:35:26;;;;;;;;;;;5.20;99.90;;;;;;5083369;28;20568;-66
2023/01/31 13:37:57;;;;;;;;;;;5.20;99.90;;;;;;5083444;28;19916;-66
2023/01/31 13:40:23;;;;;;;;;;;5.20;99.90;;;;;;5083065;28;19916;-66
2023/01/31 13:42:49;;;;;;;;;;;5.20;99.90;;;;;;5080659;28;19956;-66
2023/01/31 13:45:20;;;;;;;;;;;5.20;99.90;;;;;;5083212;28;19948;-66
2023/01/31 13:47:48;;;;;;;;;;;5.20;99.90;;;;;;5083282;28;19912;-66
2023/01/31 13:50:43;;;;;;;;;;;5.20;99.90;;;;;;5082967;28;19931;-66
2023/01/31 13:53:29;;;;;;;;;;;5.20;99.90;;;;;;5067773;28;20004;-66
2023/01/31 13:55:55;;;;;;;;;;;5.20;99.90;;;;;;5079711;28;19916;-66
2023/01/31 13:58:21;;;;;;;;;;;5.20;99.90;;;;;;5082045;28;19962;-66
2023/01/31 14:00:49;;;;;;;;;;;5.20;99.90;;;;;;5083052;28;19916;-66
2023/01/31 14:03:16;;;;;;;;;;;5.20;99.90;;;;;;5083218;28;20457;-66
2023/01/31 14:05:43;;;;;;;;;;;5.20;99.90;;;;;;5083214;28;19912;-66
2023/01/31 14:08:27;;;;;;;;;;;5.20;99.90;;;;;;5082860;28;20531;-66
2023/01/31 14:10:56;;;;;;;;;;;5.20;99.90;;;;;;5082522;28;19919;-66
2023/01/31 14:13:27;;;;;;;;;;;5.20;99.90;;;;;;5082266;28;19912;-66
2023/01/31 14:15:53;;;;;;;;;;;5.20;99.90;;;;;;5081756;28;20034;-66
2023/01/31 14:18:37;;;;;;;;;;;5.20;99.90;;;;;;5082475;28;19912;-66
2023/01/31 14:21:21;;;;;;;;;;;5.20;99.90;;;;;;5082561;28;19912;-66
2023/01/31 14:23:47;;;;;;;;;;;5.20;99.90;;;;;;5082617;28;19920;-66
2023/01/31 14:26:31;;;;;;;;;;;5.20;99.90;;;;;;5082805;28;19908;-66
2023/01/31 14:28:57;;;;;;;;;;;5.20;99.90;;;;;;5068737;28;19938;-66
2023/01/31 14:31:23;;;;;;;;;;;5.30;99.90;;;;;;5067423;28;19949;-66
2023/01/31 14:33:49;;;;;;;;;;;5.20;99.90;;;;;;5068731;28;20612;-66
2023/01/31 14:36:23;;;;;;;;;;;5.30;99.90;;;;;;5068468;28;20308;-66
2023/01/31 14:39:01;;;;;;;;;;;5.20;99.90;;;;;;5067418;28;19913;-66
2023/01/31 14:41:45;;;;;;;;;;;5.20;99.90;;;;;;5067024;28;20348;-66
2023/01/31 14:44:18;;;;;;;;;;;5.20;99.90;;;;;;5068227;28;19967;-66
2023/01/31 14:46:52;;;;;;;;;;;5.30;99.90;;;;;;5066093;28;19920;-66
2023/01/31 14:49:18;;;;;;;;;;;5.20;99.90;;;;;;5067260;28;19917;-66
2023/01/31 14:52:02;;;;;;;;;;;5.30;99.90;;;;;;5060758;28;19921;-66